Terminal Aerodrome Forecast
Issued by NWS

Home | Current Version | Previous Version | Text Only | Print | Product List | Glossary On
Versions: 1 2 3 4 5 6 7 8 9 10 11 12 13 14 15 16 17 18
290
FTUS41 KPBZ 231743
TAFAGC
TAF
KAGC 231743Z 2318/2418 25016G26KT P6SM -SHRA OVC050
     FM232100 26015G26KT P6SM -SHRA OVC025
     FM240600 27011G20KT P6SM OVC015
     FM241500 28010G18KT P6SM OVC025=

USA.gov is the U.S. government's official web portal to all federal, state and local government web resources and services.